sensor_id;sensor_type;location;lat;lon;timestamp;pressure;altitude;pressure_sealevel;temperature;humidity
47080;BME280;33067;49.296;14.470;2023-10-31T00:00:42;94936.28;;;16.57;44.80
47080;BME280;33067;49.296;14.470;2023-10-31T00:03:07;94935.70;;;16.82;44.73
47080;BME280;33067;49.296;14.470;2023-10-31T00:05:32;94931.86;;;16.83;44.66
47080;BME280;33067;49.296;14.470;2023-10-31T00:07:57;94924.65;;;17.12;44.56
47080;BME280;33067;49.296;14.470;2023-10-31T00:10:23;94921.25;;;17.14;44.50
47080;BME280;33067;49.296;14.470;2023-10-31T00:12:48;94919.96;;;16.89;44.52
47080;BME280;33067;49.296;14.470;2023-10-31T00:15:14;94924.31;;;16.87;44.55
47080;BME280;33067;49.296;14.470;2023-10-31T00:17:39;94926.52;;;16.93;44.43
47080;BME280;33067;49.296;14.470;2023-10-31T00:20:05;94928.24;;;16.72;44.38
47080;BME280;33067;49.296;14.470;2023-10-31T00:22:29;94927.84;;;16.84;44.13
47080;BME280;33067;49.296;14.470;2023-10-31T00:24:55;94932.65;;;17.09;44.14
47080;BME280;33067;49.296;14.470;2023-10-31T00:27:19;94937.47;;;16.89;44.07
47080;BME280;33067;49.296;14.470;2023-10-31T00:29:44;94941.42;;;17.17;44.04
47080;BME280;33067;49.296;14.470;2023-10-31T00:32:10;94938.61;;;16.88;44.07
47080;BME280;33067;49.296;14.470;2023-10-31T00:34:35;94942.27;;;17.31;44.06
47080;BME280;33067;49.296;14.470;2023-10-31T00:37:00;94946.21;;;17.06;44.21
47080;BME280;33067;49.296;14.470;2023-10-31T00:39:26;94954.61;;;16.96;44.33
47080;BME280;33067;49.296;14.470;2023-10-31T00:41:52;94976.01;;;17.21;44.21
47080;BME280;33067;49.296;14.470;2023-10-31T00:44:17;94972.52;;;16.63;44.78
47080;BME280;33067;49.296;14.470;2023-10-31T00:46:43;94963.26;;;16.32;44.95
47080;BME280;33067;49.296;14.470;2023-10-31T00:49:08;94963.17;;;16.57;45.38
47080;BME280;33067;49.296;14.470;2023-10-31T00:51:33;94957.54;;;16.68;45.19
47080;BME280;33067;49.296;14.470;2023-10-31T00:53:59;94965.95;;;16.61;44.98
47080;BME280;33067;49.296;14.470;2023-10-31T00:56:24;94965.12;;;16.83;44.43
47080;BME280;33067;49.296;14.470;2023-10-31T00:58:49;94969.73;;;16.85;44.99
47080;BME280;33067;49.296;14.470;2023-10-31T01:01:15;94970.44;;;16.90;44.71
47080;BME280;33067;49.296;14.470;2023-10-31T01:03:40;94969.84;;;16.53;45.40
47080;BME280;33067;49.296;14.470;2023-10-31T01:06:06;94965.33;;;16.34;45.78
47080;BME280;33067;49.296;14.470;2023-10-31T01:08:31;94963.41;;;16.20;45.74
47080;BME280;33067;49.296;14.470;2023-10-31T01:10:56;94959.30;;;16.48;45.68
47080;BME280;33067;49.296;14.470;2023-10-31T01:13:21;94953.25;;;16.50;45.72
47080;BME280;33067;49.296;14.470;2023-10-31T01:15:47;94964.92;;;16.60;45.60
47080;BME280;33067;49.296;14.470;2023-10-31T01:18:12;94968.91;;;16.63;45.47
47080;BME280;33067;49.296;14.470;2023-10-31T01:20:37;94972.21;;;16.74;45.28
47080;BME280;33067;49.296;14.470;2023-10-31T01:23:02;94971.54;;;16.56;45.09
47080;BME280;33067;49.296;14.470;2023-10-31T01:25:28;94980.37;;;16.58;45.09
47080;BME280;33067;49.296;14.470;2023-10-31T01:27:53;95009.36;;;16.58;45.21
47080;BME280;33067;49.296;14.470;2023-10-31T01:30:18;95032.89;;;15.98;46.06
47080;BME280;33067;49.296;14.470;2023-10-31T01:32:43;95040.67;;;15.78;46.59
47080;BME280;33067;49.296;14.470;2023-10-31T01:35:09;95056.55;;;15.40;47.46
47080;BME280;33067;49.296;14.470;2023-10-31T01:37:34;95073.48;;;15.36;48.00
47080;BME280;33067;49.296;14.470;2023-10-31T01:39:59;95083.06;;;15.73;47.62
47080;BME280;33067;49.296;14.470;2023-10-31T01:42:24;95073.68;;;14.74;48.84
47080;BME280;33067;49.296;14.470;2023-10-31T01:44:49;95076.65;;;15.03;48.32
47080;BME280;33067;49.296;14.470;2023-10-31T01:47:15;95078.64;;;14.99;47.99
47080;BME280;33067;49.296;14.470;2023-10-31T01:49:41;95081.09;;;15.80;47.32
47080;BME280;33067;49.296;14.470;2023-10-31T01:52:06;95094.70;;;15.75;47.38
47080;BME280;33067;49.296;14.470;2023-10-31T01:54:32;95099.19;;;15.36;47.21
47080;BME280;33067;49.296;14.470;2023-10-31T01:56:57;95107.80;;;15.43;47.10
47080;BME280;33067;49.296;14.470;2023-10-31T01:59:22;95106.72;;;15.16;47.44
47080;BME280;33067;49.296;14.470;2023-10-31T02:01:48;95113.66;;;15.67;46.92
47080;BME280;33067;49.296;14.470;2023-10-31T02:04:14;95119.94;;;15.25;47.21
47080;BME280;33067;49.296;14.470;2023-10-31T02:06:39;95129.95;;;15.36;46.97
47080;BME280;33067;49.296;14.470;2023-10-31T02:09:04;95139.94;;;15.50;47.10
47080;BME280;33067;49.296;14.470;2023-10-31T02:11:30;95146.39;;;15.27;47.12
47080;BME280;33067;49.296;14.470;2023-10-31T02:13:56;95153.13;;;15.69;46.49
47080;BME280;33067;49.296;14.470;2023-10-31T02:16:21;95154.27;;;15.64;46.58
47080;BME280;33067;49.296;14.470;2023-10-31T02:18:47;95151.62;;;16.06;45.99
47080;BME280;33067;49.296;14.470;2023-10-31T02:21:13;95156.78;;;15.88;46.92
47080;BME280;33067;49.296;14.470;2023-10-31T02:23:37;95160.44;;;15.17;48.60
47080;BME280;33067;49.296;14.470;2023-10-31T02:26:02;95165.77;;;15.35;48.57
47080;BME280;33067;49.296;14.470;2023-10-31T02:28:27;95160.88;;;15.26;49.42
47080;BME280;33067;49.296;14.470;2023-10-31T02:30:53;95171.22;;;14.72;50.72
47080;BME280;33067;49.296;14.470;2023-10-31T02:33:19;95180.98;;;15.06;50.24
47080;BME280;33067;49.296;14.470;2023-10-31T02:35:44;95183.44;;;14.89;50.67
47080;BME280;33067;49.296;14.470;2023-10-31T02:38:09;95186.61;;;14.36;51.70
47080;BME280;33067;49.296;14.470;2023-10-31T02:40:35;95182.95;;;14.45;51.90
47080;BME280;33067;49.296;14.470;2023-10-31T02:43:00;95195.66;;;14.54;51.74
47080;BME280;33067;49.296;14.470;2023-10-31T02:45:25;95201.66;;;14.84;51.15
47080;BME280;33067;49.296;14.470;2023-10-31T02:47:50;95208.34;;;14.78;50.48
47080;BME280;33067;49.296;14.470;2023-10-31T02:50:16;95214.05;;;14.96;50.46
47080;BME280;33067;49.296;14.470;2023-10-31T02:52:41;95216.19;;;14.81;50.85
47080;BME280;33067;49.296;14.470;2023-10-31T02:55:07;95218.27;;;14.76;50.78
47080;BME280;33067;49.296;14.470;2023-10-31T02:57:32;95223.15;;;14.69;50.78
47080;BME280;33067;49.296;14.470;2023-10-31T02:59:57;95224.41;;;15.24;49.96
47080;BME280;33067;49.296;14.470;2023-10-31T03:02:22;95229.77;;;15.04;50.27
47080;BME280;33067;49.296;14.470;2023-10-31T03:04:48;95229.62;;;15.33;50.21
47080;BME280;33067;49.296;14.470;2023-10-31T03:07:13;95231.89;;;15.22;49.54
47080;BME280;33067;49.296;14.470;2023-10-31T03:09:38;95233.61;;;15.80;49.16
47080;BME280;33067;49.296;14.470;2023-10-31T03:13:00;95234.28;;;15.45;49.05
47080;BME280;33067;49.296;14.470;2023-10-31T03:15:26;95227.32;;;15.26;48.99
47080;BME280;33067;49.296;14.470;2023-10-31T03:17:51;95220.51;;;15.46;49.08
47080;BME280;33067;49.296;14.470;2023-10-31T03:20:16;95227.46;;;15.00;49.54
47080;BME280;33067;49.296;14.470;2023-10-31T03:22:41;95223.98;;;15.58;49.08
47080;BME280;33067;49.296;14.470;2023-10-31T03:25:07;95224.80;;;15.30;49.87
47080;BME280;33067;49.296;14.470;2023-10-31T03:27:32;95219.58;;;15.21;50.19
47080;BME280;33067;49.296;14.470;2023-10-31T03:29:57;95222.24;;;15.24;49.78
47080;BME280;33067;49.296;14.470;2023-10-31T03:32:22;95221.98;;;15.40;49.60
47080;BME280;33067;49.296;14.470;2023-10-31T03:34:48;95218.31;;;15.60;49.46
47080;BME280;33067;49.296;14.470;2023-10-31T03:37:13;95213.17;;;15.67;49.08
47080;BME280;33067;49.296;14.470;2023-10-31T03:39:38;95220.43;;;15.38;48.91
47080;BME280;33067;49.296;14.470;2023-10-31T03:42:03;95220.46;;;15.79;48.83
47080;BME280;33067;49.296;14.470;2023-10-31T03:44:28;95228.81;;;15.59;48.59
47080;BME280;33067;49.296;14.470;2023-10-31T03:46:53;95233.64;;;15.75;48.58
47080;BME280;33067;49.296;14.470;2023-10-31T03:49:18;95233.99;;;15.65;48.43
47080;BME280;33067;49.296;14.470;2023-10-31T03:51:44;95232.03;;;15.51;48.29
47080;BME280;33067;49.296;14.470;2023-10-31T03:54:09;95222.61;;;16.24;47.84
47080;BME280;33067;49.296;14.470;2023-10-31T03:56:39;95230.92;;;16.11;48.10
47080;BME280;33067;49.296;14.470;2023-10-31T03:59:00;95231.79;;;15.92;47.80
47080;BME280;33067;49.296;14.470;2023-10-31T04:01:25;95235.89;;;15.62;48.16
47080;BME280;33067;49.296;14.470;2023-10-31T04:03:50;95238.98;;;16.21;47.28
47080;BME280;33067;49.296;14.470;2023-10-31T04:06:15;95248.94;;;15.76;48.41
47080;BME280;33067;49.296;14.470;2023-10-31T04:08:41;95255.83;;;15.61;48.31
47080;BME280;33067;49.296;14.470;2023-10-31T04:11:06;95256.14;;;15.75;47.90
47080;BME280;33067;49.296;14.470;2023-10-31T04:13:31;95262.35;;;16.15;47.96
47080;BME280;33067;49.296;14.470;2023-10-31T04:15:56;95261.87;;;16.07;47.50
47080;BME280;33067;49.296;14.470;2023-10-31T04:18:21;95268.46;;;16.30;47.55
47080;BME280;33067;49.296;14.470;2023-10-31T04:20:47;95276.23;;;15.75;47.66
47080;BME280;33067;49.296;14.470;2023-10-31T04:23:12;95282.70;;;16.00;47.78
47080;BME280;33067;49.296;14.470;2023-10-31T04:25:37;95282.65;;;15.87;47.46
47080;BME280;33067;49.296;14.470;2023-10-31T04:28:02;95279.33;;;15.81;47.57
47080;BME280;33067;49.296;14.470;2023-10-31T04:30:28;95283.16;;;16.32;47.45
47080;BME280;33067;49.296;14.470;2023-10-31T04:32:52;95282.36;;;15.85;47.46
47080;BME280;33067;49.296;14.470;2023-10-31T04:35:18;95286.91;;;15.78;47.46
47080;BME280;33067;49.296;14.470;2023-10-31T04:37:43;95288.07;;;15.81;47.50
47080;BME280;33067;49.296;14.470;2023-10-31T04:40:09;95298.17;;;16.29;47.45
47080;BME280;33067;49.296;14.470;2023-10-31T04:42:33;95304.90;;;15.89;47.23
47080;BME280;33067;49.296;14.470;2023-10-31T04:44:58;95304.97;;;15.83;47.31
47080;BME280;33067;49.296;14.470;2023-10-31T04:47:23;95308.09;;;16.10;47.21
47080;BME280;33067;49.296;14.470;2023-10-31T04:49:49;95310.47;;;15.75;47.33
47080;BME280;33067;49.296;14.470;2023-10-31T04:52:17;95310.02;;;16.05;47.07
47080;BME280;33067;49.296;14.470;2023-10-31T04:54:40;95310.85;;;15.60;47.52
47080;BME280;33067;49.296;14.470;2023-10-31T04:57:05;95315.31;;;16.01;47.07
47080;BME280;33067;49.296;14.470;2023-10-31T04:59:31;95318.37;;;15.67;47.24
47080;BME280;33067;49.296;14.470;2023-10-31T05:01:56;95317.96;;;16.06;46.98
47080;BME280;33067;49.296;14.470;2023-10-31T05:04:21;95319.94;;;15.72;47.30
47080;BME280;33067;49.296;14.470;2023-10-31T05:06:46;95327.14;;;15.83;47.40
47080;BME280;33067;49.296;14.470;2023-10-31T05:09:12;95335.81;;;15.66;47.38
47080;BME280;33067;49.296;14.470;2023-10-31T05:11:37;95337.79;;;15.69;47.33
47080;BME280;33067;49.296;14.470;2023-10-31T05:14:03;95337.85;;;15.82;47.45
47080;BME280;33067;49.296;14.470;2023-10-31T05:16:28;95338.10;;;15.71;47.38
47080;BME280;33067;49.296;14.470;2023-10-31T05:18:54;95345.43;;;15.70;47.52
47080;BME280;33067;49.296;14.470;2023-10-31T05:21:20;95352.15;;;15.57;47.46
47080;BME280;33067;49.296;14.470;2023-10-31T05:23:45;95352.92;;;15.61;47.38
47080;BME280;33067;49.296;14.470;2023-10-31T05:26:10;95363.73;;;15.90;47.32
47080;BME280;33067;49.296;14.470;2023-10-31T05:28:36;95369.64;;;15.90;47.25
47080;BME280;33067;49.296;14.470;2023-10-31T05:31:01;95374.48;;;15.58;47.09
47080;BME280;33067;49.296;14.470;2023-10-31T05:33:26;95385.80;;;15.57;47.16
47080;BME280;33067;49.296;14.470;2023-10-31T05:35:51;95393.07;;;15.48;47.17
47080;BME280;33067;49.296;14.470;2023-10-31T05:38:16;95398.97;;;15.74;47.08
47080;BME280;33067;49.296;14.470;2023-10-31T05:40:42;95400.05;;;16.01;46.90
47080;BME280;33067;49.296;14.470;2023-10-31T05:43:08;95392.96;;;15.30;47.43
47080;BME280;33067;49.296;14.470;2023-10-31T05:45:34;95384.13;;;15.37;47.34
47080;BME280;33067;49.296;14.470;2023-10-31T05:48:00;95380.71;;;15.75;47.65
47080;BME280;33067;49.296;14.470;2023-10-31T05:50:25;95376.61;;;15.55;47.65
47080;BME280;33067;49.296;14.470;2023-10-31T05:52:51;95377.65;;;15.31;47.48
47080;BME280;33067;49.296;14.470;2023-10-31T05:55:17;95381.77;;;15.42;47.21
47080;BME280;33067;49.296;14.470;2023-10-31T05:57:42;95397.38;;;15.72;47.15
47080;BME280;33067;49.296;14.470;2023-10-31T06:00:08;95411.63;;;15.78;47.03
47080;BME280;33067;49.296;14.470;2023-10-31T06:02:33;95417.83;;;15.81;47.00
47080;BME280;33067;49.296;14.470;2023-10-31T06:04:58;95417.44;;;15.94;46.80
47080;BME280;33067;49.296;14.470;2023-10-31T06:07:24;95424.37;;;15.84;46.84
47080;BME280;33067;49.296;14.470;2023-10-31T06:09:49;95425.06;;;15.88;46.88
47080;BME280;33067;49.296;14.470;2023-10-31T06:12:15;95431.30;;;15.53;47.14
47080;BME280;33067;49.296;14.470;2023-10-31T06:14:40;95443.85;;;15.56;46.87
47080;BME280;33067;49.296;14.470;2023-10-31T06:17:05;95451.90;;;15.48;46.87
47080;BME280;33067;49.296;14.470;2023-10-31T06:19:34;95456.43;;;15.65;46.79
47080;BME280;33067;49.296;14.470;2023-10-31T06:21:56;95466.67;;;15.69;47.14
47080;BME280;33067;49.296;14.470;2023-10-31T06:24:22;95479.43;;;15.64;47.04
47080;BME280;33067;49.296;14.470;2023-10-31T06:26:48;95483.97;;;15.61;46.97
47080;BME280;33067;49.296;14.470;2023-10-31T06:29:13;95485.89;;;15.69;46.80
47080;BME280;33067;49.296;14.470;2023-10-31T06:31:39;95493.29;;;15.02;47.46
47080;BME280;33067;49.296;14.470;2023-10-31T06:34:04;95500.30;;;15.08;46.95
47080;BME280;33067;49.296;14.470;2023-10-31T06:36:30;95504.65;;;15.43;46.89
47080;BME280;33067;49.296;14.470;2023-10-31T06:38:55;95509.74;;;15.45;46.46
47080;BME280;33067;49.296;14.470;2023-10-31T06:41:20;95507.65;;;14.83;47.08
47080;BME280;33067;49.296;14.470;2023-10-31T06:43:45;95513.88;;;14.18;46.60
47080;BME280;33067;49.296;14.470;2023-10-31T06:46:10;95522.74;;;14.73;46.18
47080;BME280;33067;49.296;14.470;2023-10-31T06:48:36;95521.79;;;14.58;46.10
47080;BME280;33067;49.296;14.470;2023-10-31T06:51:01;95526.77;;;14.98;46.04
47080;BME280;33067;49.296;14.470;2023-10-31T06:53:26;95535.31;;;14.36;46.12
47080;BME280;33067;49.296;14.470;2023-10-31T06:55:51;95533.81;;;14.39;45.87
47080;BME280;33067;49.296;14.470;2023-10-31T06:58:17;95533.24;;;14.46;45.64
47080;BME280;33067;49.296;14.470;2023-10-31T07:00:43;95526.63;;;14.15;45.85
47080;BME280;33067;49.296;14.470;2023-10-31T07:03:08;95528.43;;;13.76;45.73
47080;BME280;33067;49.296;14.470;2023-10-31T07:05:33;95519.12;;;13.59;45.96
47080;BME280;33067;49.296;14.470;2023-10-31T07:07:59;95527.50;;;13.80;45.36
47080;BME280;33067;49.296;14.470;2023-10-31T07:10:24;95545.66;;;14.12;45.09
47080;BME280;33067;49.296;14.470;2023-10-31T07:12:49;95546.44;;;14.27;44.27
47080;BME280;33067;49.296;14.470;2023-10-31T07:15:15;95540.12;;;13.95;44.23
47080;BME280;33067;49.296;14.470;2023-10-31T07:17:40;95544.40;;;14.57;43.37
47080;BME280;33067;49.296;14.470;2023-10-31T07:20:06;95540.62;;;14.24;43.86
47080;BME280;33067;49.296;14.470;2023-10-31T07:22:30;95535.40;;;14.54;43.47
47080;BME280;33067;49.296;14.470;2023-10-31T07:24:56;95536.94;;;14.58;43.52
47080;BME280;33067;49.296;14.470;2023-10-31T07:27:20;95542.38;;;14.37;43.56
47080;BME280;33067;49.296;14.470;2023-10-31T07:29:46;95546.80;;;14.83;43.36
47080;BME280;33067;49.296;14.470;2023-10-31T07:32:12;95559.11;;;15.18;42.84
47080;BME280;33067;49.296;14.470;2023-10-31T07:34:40;95566.09;;;14.90;42.78
47080;BME280;33067;49.296;14.470;2023-10-31T07:37:03;95558.32;;;14.61;43.22
47080;BME280;33067;49.296;14.470;2023-10-31T07:39:28;95557.89;;;14.78;43.34
47080;BME280;33067;49.296;14.470;2023-10-31T07:41:53;95563.68;;;14.90;43.34
47080;BME280;33067;49.296;14.470;2023-10-31T07:44:18;95571.83;;;15.10;42.53
47080;BME280;33067;49.296;14.470;2023-10-31T07:46:44;95568.70;;;14.79;42.63
47080;BME280;33067;49.296;14.470;2023-10-31T07:49:09;95571.23;;;14.68;40.93
47080;BME280;33067;49.296;14.470;2023-10-31T07:51:34;95581.42;;;16.45;40.30
47080;BME280;33067;49.296;14.470;2023-10-31T07:53:59;95586.50;;;15.96;41.01
47080;BME280;33067;49.296;14.470;2023-10-31T07:56:25;95588.41;;;15.90;41.33
47080;BME280;33067;49.296;14.470;2023-10-31T07:58:50;95592.95;;;15.98;41.51
47080;BME280;33067;49.296;14.470;2023-10-31T08:01:16;95596.01;;;15.55;41.57
47080;BME280;33067;49.296;14.470;2023-10-31T08:03:40;95611.13;;;15.81;41.22
47080;BME280;33067;49.296;14.470;2023-10-31T08:06:06;95625.11;;;15.51;41.66
47080;BME280;33067;49.296;14.470;2023-10-31T08:08:31;95638.29;;;15.47;41.68
47080;BME280;33067;49.296;14.470;2023-10-31T08:10:56;95641.30;;;15.65;41.29
47080;BME280;33067;49.296;14.470;2023-10-31T08:13:21;95640.35;;;15.53;40.93
47080;BME280;33067;49.296;14.470;2023-10-31T08:15:46;95640.69;;;14.80;41.38
47080;BME280;33067;49.296;14.470;2023-10-31T08:18:11;95638.04;;;15.23;41.12
47080;BME280;33067;49.296;14.470;2023-10-31T08:20:37;95639.39;;;15.39;41.65
47080;BME280;33067;49.296;14.470;2023-10-31T08:23:02;95634.89;;;14.98;41.88
47080;BME280;33067;49.296;14.470;2023-10-31T08:25:27;95634.59;;;15.18;41.73
47080;BME280;33067;49.296;14.470;2023-10-31T08:27:52;95640.20;;;15.12;41.62
47080;BME280;33067;49.296;14.470;2023-10-31T08:30:19;95646.96;;;14.87;41.38
47080;BME280;33067;49.296;14.470;2023-10-31T08:32:43;95654.88;;;15.19;41.22
47080;BME280;33067;49.296;14.470;2023-10-31T08:35:08;95659.35;;;15.20;41.13
47080;BME280;33067;49.296;14.470;2023-10-31T08:37:33;95666.93;;;15.03;41.42
47080;BME280;33067;49.296;14.470;2023-10-31T08:39:58;95666.00;;;15.12;41.37
47080;BME280;33067;49.296;14.470;2023-10-31T08:42:24;95669.07;;;15.02;41.25
47080;BME280;33067;49.296;14.470;2023-10-31T08:44:49;95678.83;;;15.18;40.71
47080;BME280;33067;49.296;14.470;2023-10-31T08:47:14;95678.34;;;15.13;40.73
47080;BME280;33067;49.296;14.470;2023-10-31T08:49:39;95673.89;;;15.32;40.82
47080;BME280;33067;49.296;14.470;2023-10-31T08:52:05;95675.00;;;14.75;41.26
47080;BME280;33067;49.296;14.470;2023-10-31T08:54:30;95674.62;;;15.12;40.75
47080;BME280;33067;49.296;14.470;2023-10-31T08:56:55;95672.30;;;14.88;40.75
47080;BME280;33067;49.296;14.470;2023-10-31T08:59:20;95670.99;;;15.10;40.80
47080;BME280;33067;49.296;14.470;2023-10-31T09:01:45;95669.43;;;14.62;40.82
47080;BME280;33067;49.296;14.470;2023-10-31T09:04:10;95661.13;;;14.86;40.39
47080;BME280;33067;49.296;14.470;2023-10-31T09:06:36;95657.34;;;15.11;39.98
47080;BME280;33067;49.296;14.470;2023-10-31T09:09:01;95655.64;;;14.91;40.79
47080;BME280;33067;49.296;14.470;2023-10-31T09:11:26;95653.71;;;15.27;40.46
47080;BME280;33067;49.296;14.470;2023-10-31T09:13:51;95645.57;;;15.34;40.10
47080;BME280;33067;49.296;14.470;2023-10-31T09:16:17;95640.25;;;15.80;39.87
47080;BME280;33067;49.296;14.470;2023-10-31T09:18:42;95632.87;;;14.97;39.97
47080;BME280;33067;49.296;14.470;2023-10-31T09:21:07;95623.15;;;14.37;41.04
47080;BME280;33067;49.296;14.470;2023-10-31T09:23:32;95610.67;;;14.79;40.75
47080;BME280;33067;49.296;14.470;2023-10-31T09:25:58;95608.64;;;14.77;40.45
47080;BME280;33067;49.296;14.470;2023-10-31T09:28:22;95609.54;;;14.90;40.74
47080;BME280;33067;49.296;14.470;2023-10-31T09:30:48;95609.04;;;14.76;40.76
47080;BME280;33067;49.296;14.470;2023-10-31T09:33:13;95618.90;;;14.96;40.92
47080;BME280;33067;49.296;14.470;2023-10-31T09:35:38;95624.50;;;14.75;40.64
47080;BME280;33067;49.296;14.470;2023-10-31T09:38:03;95639.77;;;14.57;40.63
47080;BME280;33067;49.296;14.470;2023-10-31T09:40:29;95636.80;;;15.03;40.63
47080;BME280;33067;49.296;14.470;2023-10-31T09:42:54;95635.74;;;15.02;39.94
47080;BME280;33067;49.296;14.470;2023-10-31T09:45:19;95646.90;;;14.62;40.76
47080;BME280;33067;49.296;14.470;2023-10-31T09:47:44;95644.93;;;15.02;40.71
47080;BME280;33067;49.296;14.470;2023-10-31T09:50:10;95633.56;;;14.67;40.25
47080;BME280;33067;49.296;14.470;2023-10-31T09:52:36;95641.62;;;15.19;40.20
47080;BME280;33067;49.296;14.470;2023-10-31T09:55:00;95640.41;;;15.42;39.73
47080;BME280;33067;49.296;14.470;2023-10-31T09:57:25;95651.71;;;15.67;39.52
47080;BME280;33067;49.296;14.470;2023-10-31T09:59:50;95661.58;;;15.19;39.18
47080;BME280;33067;49.296;14.470;2023-10-31T10:02:15;95680.93;;;15.28;39.44
47080;BME280;33067;49.296;14.470;2023-10-31T10:04:40;95693.82;;;15.54;39.23
47080;BME280;33067;49.296;14.470;2023-10-31T10:07:06;95705.22;;;14.92;39.60
47080;BME280;33067;49.296;14.470;2023-10-31T10:09:31;95708.01;;;15.20;39.09
47080;BME280;33067;49.296;14.470;2023-10-31T10:11:56;95706.03;;;15.46;39.00
47080;BME280;33067;49.296;14.470;2023-10-31T10:14:23;95702.36;;;15.62;38.65
47080;BME280;33067;49.296;14.470;2023-10-31T10:16:46;95694.26;;;15.38;38.77
47080;BME280;33067;49.296;14.470;2023-10-31T10:19:17;95690.22;;;15.68;38.30
47080;BME280;33067;49.296;14.470;2023-10-31T10:21:45;95691.49;;;15.14;38.23
47080;BME280;33067;49.296;14.470;2023-10-31T10:24:02;95696.44;;;15.12;38.25
47080;BME280;33067;49.296;14.470;2023-10-31T10:26:27;95708.07;;;15.30;38.14
47080;BME280;33067;49.296;14.470;2023-10-31T10:28:52;95723.22;;;15.34;37.33
47080;BME280;33067;49.296;14.470;2023-10-31T10:31:17;95742.39;;;15.67;37.50
47080;BME280;33067;49.296;14.470;2023-10-31T10:33:43;95768.07;;;15.49;37.26
47080;BME280;33067;49.296;14.470;2023-10-31T10:36:10;95782.89;;;15.73;37.44
47080;BME280;33067;49.296;14.470;2023-10-31T10:38:36;95777.22;;;15.55;37.47
47080;BME280;33067;49.296;14.470;2023-10-31T10:40:59;95767.00;;;15.56;37.36
47080;BME280;33067;49.296;14.470;2023-10-31T10:43:25;95763.81;;;15.84;37.38
47080;BME280;33067;49.296;14.470;2023-10-31T10:45:53;95762.50;;;15.95;36.80
47080;BME280;33067;49.296;14.470;2023-10-31T10:48:16;95767.20;;;15.58;36.84
47080;BME280;33067;49.296;14.470;2023-10-31T10:50:42;95775.22;;;16.00;37.26
47080;BME280;33067;49.296;14.470;2023-10-31T10:53:10;95788.76;;;15.71;37.49
47080;BME280;33067;49.296;14.470;2023-10-31T10:55:37;95793.39;;;15.57;37.76
47080;BME280;33067;49.296;14.470;2023-10-31T10:58:01;95801.29;;;15.89;37.96
47080;BME280;33067;49.296;14.470;2023-10-31T11:00:21;95802.74;;;15.32;37.72
47080;BME280;33067;49.296;14.470;2023-10-31T11:02:47;95797.71;;;15.64;37.56
47080;BME280;33067;49.296;14.470;2023-10-31T11:05:12;95794.45;;;15.17;37.78
47080;BME280;33067;49.296;14.470;2023-10-31T11:07:37;95783.80;;;15.00;37.97
47080;BME280;33067;49.296;14.470;2023-10-31T11:10:03;95773.08;;;15.28;37.71
47080;BME280;33067;49.296;14.470;2023-10-31T11:12:28;95757.45;;;15.54;37.34
47080;BME280;33067;49.296;14.470;2023-10-31T11:14:52;95746.65;;;14.90;38.10
47080;BME280;33067;49.296;14.470;2023-10-31T11:17:24;95752.75;;;14.65;38.16
47080;BME280;33067;49.296;14.470;2023-10-31T11:19:43;95759.46;;;15.05;37.61
47080;BME280;33067;49.296;14.470;2023-10-31T11:22:10;95765.22;;;15.07;37.58
47080;BME280;33067;49.296;14.470;2023-10-31T11:24:34;95767.97;;;14.63;37.80
47080;BME280;33067;49.296;14.470;2023-10-31T11:27:00;95776.02;;;14.34;37.79
47080;BME280;33067;49.296;14.470;2023-10-31T11:29:24;95780.22;;;14.73;37.76
47080;BME280;33067;49.296;14.470;2023-10-31T11:31:49;95785.33;;;15.08;37.28
47080;BME280;33067;49.296;14.470;2023-10-31T11:34:16;95791.56;;;15.14;37.31
47080;BME280;33067;49.296;14.470;2023-10-31T11:36:39;95792.32;;;15.18;37.03
47080;BME280;33067;49.296;14.470;2023-10-31T11:39:11;95792.97;;;15.15;37.09
47080;BME280;33067;49.296;14.470;2023-10-31T11:41:33;95797.31;;;15.06;37.41
47080;BME280;33067;49.296;14.470;2023-10-31T11:43:55;95803.30;;;15.36;37.16
47080;BME280;33067;49.296;14.470;2023-10-31T11:46:21;95803.24;;;15.36;37.05
47080;BME280;33067;49.296;14.470;2023-10-31T11:48:47;95796.10;;;15.32;37.08
47080;BME280;33067;49.296;14.470;2023-10-31T11:51:11;95793.38;;;15.19;37.13
47080;BME280;33067;49.296;14.470;2023-10-31T11:53:39;95788.47;;;15.36;36.92
47080;BME280;33067;49.296;14.470;2023-10-31T11:56:01;95785.17;;;15.27;37.04
47080;BME280;33067;49.296;14.470;2023-10-31T11:58:26;95782.47;;;15.06;37.00
47080;BME280;33067;49.296;14.470;2023-10-31T12:00:56;95777.40;;;15.36;36.96
47080;BME280;33067;49.296;14.470;2023-10-31T12:03:18;95779.74;;;15.22;36.91
47080;BME280;33067;49.296;14.470;2023-10-31T12:05:52;95785.84;;;15.18;37.41
47080;BME280;33067;49.296;14.470;2023-10-31T12:08:07;95788.70;;;15.11;37.02
47080;BME280;33067;49.296;14.470;2023-10-31T12:10:32;95789.13;;;15.03;37.10
47080;BME280;33067;49.296;14.470;2023-10-31T12:12:58;95794.83;;;15.62;36.93
47080;BME280;33067;49.296;14.470;2023-10-31T12:15:23;95794.52;;;15.33;36.89
47080;BME280;33067;49.296;14.470;2023-10-31T12:17:48;95792.01;;;15.18;37.18
47080;BME280;33067;49.296;14.470;2023-10-31T12:20:13;95788.34;;;15.42;37.10
47080;BME280;33067;49.296;14.470;2023-10-31T12:22:38;95784.51;;;15.21;37.13
47080;BME280;33067;49.296;14.470;2023-10-31T12:25:05;95784.96;;;14.88;37.33
47080;BME280;33067;49.296;14.470;2023-10-31T12:27:42;95784.94;;;15.18;37.31
47080;BME280;33067;49.296;14.470;2023-10-31T12:30:00;95780.61;;;14.98;37.20
47080;BME280;33067;49.296;14.470;2023-10-31T12:32:19;95777.50;;;15.01;37.53
47080;BME280;33067;49.296;14.470;2023-10-31T12:34:44;95773.88;;;15.22;37.22
47080;BME280;33067;49.296;14.470;2023-10-31T12:37:10;95769.02;;;15.21;37.00
47080;BME280;33067;49.296;14.470;2023-10-31T12:39:35;95760.47;;;14.98;36.94